Terminal Aerodrome Forecast
Issued by NWS

Current Version | Previous Version | Text Only | Print | Product List | Glossary On
Versions: 1 2 3 4 5 6 7 8 9 10 11 12 13
000
FTUS45 KRIW 181120
TAFJAC
TAF
KJAC 181120Z 1812/1912 VRB05KT P6SM SKC
     FM182000 21008KT P6SM FEW110
     FM182300 28010KT P6SM FEW110
     FM190200 VRB04KT P6SM SKC
      AMD LTD TO CLD VIS AND WIND=

USA.gov is the U.S. government's official web portal to all federal, state and local government web resources and services.